createdAt,value
2023-02-19T00:01:34.271Z,102073.97
2023-02-19T00:04:04.342Z,102064.53
2023-02-19T00:06:33.303Z,102069.66
2023-02-19T00:09:01.229Z,102070.72
2023-02-19T00:11:31.642Z,102078.31
2023-02-19T00:14:00.373Z,102077.63
2023-02-19T00:16:30.592Z,102085.09
2023-02-19T00:18:59.133Z,102071.31
2023-02-19T00:21:26.691Z,102065.16
2023-02-19T00:23:56.198Z,102070.53
2023-02-19T00:26:23.888Z,102070.44
2023-02-19T00:28:54.040Z,102064.91
2023-02-19T00:31:26.312Z,102062.50
2023-02-19T00:33:58.781Z,102069.50
2023-02-19T00:36:27.184Z,102075.06
2023-02-19T00:38:55.150Z,102069.16
2023-02-19T00:41:24.194Z,102059.75
2023-02-19T00:43:54.543Z,102067.03
2023-02-19T00:46:33.893Z,102064.66
2023-02-19T00:49:02.501Z,102055.69
2023-02-19T00:51:32.373Z,102042.88
2023-02-19T00:54:00.277Z,102050.81
2023-02-19T00:56:27.907Z,102064.53
2023-02-19T00:58:56.582Z,102053.22
2023-02-19T01:01:24.088Z,102041.44
2023-02-19T01:03:52.370Z,102040.91
2023-02-19T01:06:20.888Z,102036.16
2023-02-19T01:08:48.686Z,102039.28
2023-02-19T01:11:16.413Z,102040.03
2023-02-19T01:13:44.403Z,102043.31
2023-02-19T01:16:17.959Z,102038.16
2023-02-19T01:18:46.188Z,102043.91
2023-02-19T01:21:22.796Z,102055.44
2023-02-19T01:23:51.373Z,102057.75
2023-02-19T01:26:23.908Z,102045.00
2023-02-19T01:28:51.820Z,102048.06
2023-02-19T01:31:21.849Z,102044.00
2023-02-19T01:33:59.734Z,102057.63
2023-02-19T01:36:28.530Z,102064.66
2023-02-19T01:38:56.215Z,102044.81
2023-02-19T01:41:24.977Z,102047.75
2023-02-19T01:44:12.330Z,102050.22
2023-02-19T01:46:41.502Z,102058.56
2023-02-19T01:49:14.341Z,102055.69
2023-02-19T01:51:48.328Z,102052.25
2023-02-19T01:54:18.113Z,102062.25
2023-02-19T01:56:46.579Z,102066.34
2023-02-19T01:59:14.393Z,102050.03
2023-02-19T02:01:44.314Z,102061.31
2023-02-19T02:04:13.893Z,102061.53
2023-02-19T02:06:51.884Z,102056.78
2023-02-19T02:09:38.785Z,102057.47
2023-02-19T02:12:06.650Z,102062.91
2023-02-19T02:14:36.665Z,102063.13
2023-02-19T02:17:10.145Z,102055.16
2023-02-19T02:19:53.193Z,102052.19
2023-02-19T02:22:24.748Z,102046.97
2023-02-19T02:25:25.403Z,102053.06
2023-02-19T02:28:06.998Z,102050.22
2023-02-19T02:30:50.461Z,102059.59
2023-02-19T02:33:57.549Z,102064.91
2023-02-19T02:36:29.582Z,102063.25
2023-02-19T02:38:58.399Z,102064.84
2023-02-19T02:41:27.269Z,102068.13
2023-02-19T02:43:55.226Z,102062.00
2023-02-19T02:46:26.953Z,102051.47
2023-02-19T02:49:06.256Z,102053.56
2023-02-19T02:51:45.243Z,102054.84
2023-02-19T02:54:45.618Z,102056.34
2023-02-19T02:57:15.672Z,102049.59
2023-02-19T02:59:50.014Z,102044.97
2023-02-19T03:02:24.365Z,102050.41
2023-02-19T03:05:24.050Z,102050.94
2023-02-19T03:08:10.730Z,102054.63
2023-02-19T03:10:45.870Z,102064.28
2023-02-19T03:13:37.373Z,102063.56
2023-02-19T03:16:44.998Z,102073.16
2023-02-19T03:19:21.760Z,102067.22
2023-02-19T03:22:01.030Z,102064.34
2023-02-19T03:24:52.862Z,102061.22
2023-02-19T03:27:21.926Z,102070.16
2023-02-19T03:29:55.148Z,102061.31
2023-02-19T03:32:28.261Z,102056.69
2023-02-19T03:35:01.790Z,102046.13
2023-02-19T03:37:33.514Z,102052.56
2023-02-19T03:40:01.354Z,102057.41
2023-02-19T03:42:37.658Z,102056.97
2023-02-19T03:45:19.987Z,102054.75
2023-02-19T03:48:15.300Z,102049.59
2023-02-19T03:50:45.763Z,102057.19
2023-02-19T03:53:42.674Z,102052.44
2023-02-19T03:56:22.866Z,102045.94
2023-02-19T03:59:06.015Z,102052.69
2023-02-19T04:01:37.656Z,102063.84
2023-02-19T04:04:17.139Z,102067.63
2023-02-19T04:06:47.025Z,102059.75
2023-02-19T04:09:15.125Z,102060.91
2023-02-19T04:11:48.353Z,102072.19
2023-02-19T04:14:35.023Z,102067.78
2023-02-19T04:17:06.962Z,102072.75
2023-02-19T04:19:38.009Z,102071.06
2023-02-19T04:22:06.882Z,102081.72
2023-02-19T04:24:41.093Z,102080.53
2023-02-19T04:27:09.333Z,102088.16
2023-02-19T04:29:39.106Z,102086.56
2023-02-19T04:32:06.949Z,102085.59
2023-02-19T04:34:34.538Z,102087.72
2023-02-19T04:37:02.526Z,102096.75
2023-02-19T04:39:29.956Z,102080.81
2023-02-19T04:41:57.278Z,102102.03
2023-02-19T04:44:24.859Z,102099.19
2023-02-19T04:46:52.428Z,102107.13
2023-02-19T04:49:20.106Z,102102.63
2023-02-19T04:51:47.445Z,102096.25
2023-02-19T04:54:14.781Z,102106.44
2023-02-19T04:56:42.310Z,102108.25
2023-02-19T04:59:10.265Z,102118.06
2023-02-19T05:01:37.647Z,102117.06
2023-02-19T05:04:05.334Z,102132.53
2023-02-19T05:06:33.003Z,102135.63
2023-02-19T05:09:00.628Z,102141.91
2023-02-19T05:11:28.258Z,102143.97
2023-02-19T05:13:56.689Z,102137.53
2023-02-19T05:16:24.051Z,102138.34
2023-02-19T05:18:51.729Z,102121.16
2023-02-19T05:21:19.370Z,102120.03
2023-02-19T05:23:46.820Z,102115.00
2023-02-19T05:26:19.893Z,102132.34
2023-02-19T05:28:50.212Z,102125.00
2023-02-19T05:31:17.523Z,102129.09
2023-02-19T05:33:45.912Z,102137.59
2023-02-19T05:36:14.133Z,102146.53
2023-02-19T05:38:42.100Z,102155.63
2023-02-19T05:41:14.986Z,102156.03
2023-02-19T05:43:44.250Z,102162.59
2023-02-19T05:46:14.214Z,102167.03
2023-02-19T05:48:41.656Z,102171.06
2023-02-19T05:51:11.988Z,102169.72
2023-02-19T05:53:40.190Z,102178.28
2023-02-19T05:56:19.737Z,102171.34
2023-02-19T05:58:47.204Z,102166.78
2023-02-19T06:01:17.362Z,102166.25
2023-02-19T06:03:45.047Z,102173.66
2023-02-19T06:06:14.507Z,102168.41
2023-02-19T06:08:42.082Z,102166.75
2023-02-19T06:11:09.951Z,102166.94
2023-02-19T06:13:37.416Z,102173.66
2023-02-19T06:16:06.196Z,102176.13
2023-02-19T06:18:34.438Z,102180.88
2023-02-19T06:21:06.453Z,102180.59
2023-02-19T06:23:33.746Z,102173.03
2023-02-19T06:26:08.436Z,102172.06
2023-02-19T06:28:36.260Z,102182.44
2023-02-19T06:31:05.143Z,102185.44
2023-02-19T06:33:33.354Z,102184.84
2023-02-19T06:36:02.325Z,102176.53
2023-02-19T06:38:30.617Z,102187.94
2023-02-19T06:41:05.667Z,102179.50
2023-02-19T06:43:33.761Z,102188.22
2023-02-19T06:46:02.542Z,102187.97
2023-02-19T06:48:31.063Z,102195.84
2023-02-19T06:50:58.658Z,102203.94
2023-02-19T06:53:25.971Z,102192.69
2023-02-19T06:56:04.966Z,102206.22
2023-02-19T06:58:33.217Z,102207.88
2023-02-19T07:01:00.660Z,102205.97
2023-02-19T07:03:28.267Z,102212.28
2023-02-19T07:05:55.516Z,102212.06
2023-02-19T07:08:23.034Z,102218.16
2023-02-19T07:10:58.060Z,102219.19
2023-02-19T07:13:27.031Z,102232.66
2023-02-19T07:16:02.205Z,102239.31
2023-02-19T07:18:29.941Z,102233.25
2023-02-19T07:21:11.754Z,102234.41
2023-02-19T07:23:40.158Z,102230.50
2023-02-19T07:26:16.475Z,102233.69
2023-02-19T07:28:45.045Z,102233.63
2023-02-19T07:31:13.890Z,102243.25
2023-02-19T07:33:44.916Z,102241.78
2023-02-19T07:36:12.705Z,102255.84
2023-02-19T07:38:40.178Z,102260.81
2023-02-19T07:41:07.668Z,102255.03
2023-02-19T07:43:36.754Z,102261.34
2023-02-19T07:46:05.783Z,102268.25
2023-02-19T07:48:34.982Z,102271.03
2023-02-19T07:51:04.319Z,102274.63
2023-02-19T07:53:33.272Z,102274.94
2023-02-19T07:56:03.255Z,102274.09
2023-02-19T07:58:31.210Z,102262.75
2023-02-19T08:01:10.293Z,102272.09
2023-02-19T08:03:40.144Z,102277.59
2023-02-19T08:06:08.314Z,102283.06
2023-02-19T08:08:35.705Z,102288.13
2023-02-19T08:11:23.744Z,102285.63
2023-02-19T08:13:52.151Z,102278.63
2023-02-19T08:16:29.694Z,102287.13
2023-02-19T08:19:08.253Z,102289.09
2023-02-19T08:21:35.781Z,102296.25
2023-02-19T08:24:03.388Z,102299.50
2023-02-19T08:26:30.883Z,102295.34
2023-02-19T08:28:59.070Z,102289.03
2023-02-19T08:31:27.330Z,102292.06
2023-02-19T08:33:56.012Z,102299.19
2023-02-19T08:36:23.414Z,102312.28
2023-02-19T08:38:50.914Z,102313.22
2023-02-19T08:41:18.704Z,102307.69
2023-02-19T08:43:46.054Z,102302.47
2023-02-19T08:46:13.565Z,102291.69
2023-02-19T08:48:41.196Z,102294.50
2023-02-19T08:51:13.839Z,102304.41
2023-02-19T08:53:42.348Z,102307.66
2023-02-19T08:56:12.855Z,102298.84
2023-02-19T08:58:41.189Z,102299.91
2023-02-19T09:01:14.252Z,102302.03
2023-02-19T09:03:42.591Z,102311.00
2023-02-19T09:06:16.048Z,102311.44
2023-02-19T09:08:43.527Z,102322.53
2023-02-19T09:11:12.161Z,102311.72
2023-02-19T09:13:40.225Z,102314.19
2023-02-19T09:16:08.206Z,102316.88
2023-02-19T09:18:36.371Z,102314.59
2023-02-19T09:21:05.471Z,102311.81
2023-02-19T09:23:34.626Z,102316.97
2023-02-19T09:26:07.580Z,102313.41
2023-02-19T09:28:35.773Z,102318.81
2023-02-19T09:31:08.038Z,102325.63
2023-02-19T09:33:36.317Z,102325.69
2023-02-19T09:36:04.436Z,102319.72
2023-02-19T09:38:32.037Z,102312.13
2023-02-19T09:41:00.365Z,102316.38
2023-02-19T09:43:29.065Z,102322.09
2023-02-19T09:46:24.262Z,102324.38
2023-02-19T09:48:53.618Z,102327.84
2023-02-19T09:51:22.020Z,102333.91
2023-02-19T09:53:51.250Z,102327.06
2023-02-19T09:56:18.576Z,102330.56
2023-02-19T09:58:51.171Z,102334.50
2023-02-19T10:01:19.252Z,102338.31
2023-02-19T10:03:48.450Z,102323.06
2023-02-19T10:06:25.565Z,102334.88
2023-02-19T10:09:11.501Z,102342.25
2023-02-19T10:11:39.159Z,102331.50
2023-02-19T10:14:09.602Z,102329.56
2023-02-19T10:16:41.027Z,102330.59
2023-02-19T10:19:15.156Z,102335.66
2023-02-19T10:21:42.945Z,102348.41
2023-02-19T10:24:17.529Z,102350.44
2023-02-19T10:26:44.838Z,102348.16
2023-02-19T10:29:12.314Z,102355.94
2023-02-19T10:31:39.786Z,102336.88
2023-02-19T10:34:18.444Z,102348.56
2023-02-19T10:36:48.328Z,102342.91
2023-02-19T10:39:22.032Z,102355.31
2023-02-19T10:41:50.793Z,102360.28
2023-02-19T10:44:21.999Z,102362.75
2023-02-19T10:46:51.706Z,102372.44
2023-02-19T10:49:38.259Z,102369.38
2023-02-19T10:52:20.801Z,102366.59
2023-02-19T10:54:53.368Z,102380.94
2023-02-19T10:57:30.439Z,102392.56
2023-02-19T11:00:01.843Z,102410.25
2023-02-19T11:02:30.528Z,102401.69
2023-02-19T11:05:15.433Z,102413.53
2023-02-19T11:07:46.593Z,102417.09
2023-02-19T11:10:22.715Z,102403.44
2023-02-19T11:12:52.291Z,102404.72
2023-02-19T11:15:24.011Z,102397.97
2023-02-19T11:18:13.948Z,102412.13
2023-02-19T11:20:57.919Z,102392.03
2023-02-19T11:23:30.290Z,102396.69
2023-02-19T11:26:00.975Z,102402.97
2023-02-19T11:28:36.560Z,102398.53
2023-02-19T11:31:27.591Z,102395.75
2023-02-19T11:34:26.131Z,102396.13
2023-02-19T11:37:13.910Z,102398.47
2023-02-19T11:39:44.054Z,102397.16
2023-02-19T11:42:29.584Z,102407.88
2023-02-19T11:45:23.784Z,102416.06
2023-02-19T11:48:09.636Z,102410.38
2023-02-19T11:50:59.064Z,102411.00
2023-02-19T11:53:27.962Z,102408.88
2023-02-19T11:56:08.559Z,102413.38
2023-02-19T11:58:48.019Z,102409.31
2023-02-19T12:01:29.637Z,102397.25
2023-02-19T12:04:32.225Z,102389.66
2023-02-19T12:07:16.981Z,102398.41
2023-02-19T12:09:50.593Z,102411.53
2023-02-19T12:12:37.878Z,102404.41
2023-02-19T12:15:24.514Z,102409.13
2023-02-19T12:18:19.197Z,102405.28
2023-02-19T12:20:49.544Z,102412.16
2023-02-19T12:23:54.492Z,102407.75
2023-02-19T12:26:41.030Z,102407.13
2023-02-19T12:29:26.598Z,102406.00
2023-02-19T12:32:44.789Z,102397.69
2023-02-19T12:35:46.066Z,102397.47
2023-02-19T12:38:16.200Z,102399.50
2023-02-19T12:40:43.656Z,102397.47
2023-02-19T12:43:24.421Z,102385.13
2023-02-19T12:46:20.430Z,102397.69
2023-02-19T12:49:00.341Z,102392.47
2023-02-19T12:51:33.959Z,102389.88
2023-02-19T12:54:06.325Z,102391.81
2023-02-19T12:56:42.833Z,102390.28
2023-02-19T12:59:26.722Z,102399.63
2023-02-19T13:02:12.773Z,102401.28
2023-02-19T13:05:05.140Z,102388.63
2023-02-19T13:07:52.729Z,102384.28
2023-02-19T13:10:41.431Z,102378.72
2023-02-19T13:13:32.347Z,102377.03
2023-02-19T13:16:10.340Z,102372.25
2023-02-19T13:18:49.456Z,102349.22
2023-02-19T13:21:38.227Z,102342.78
2023-02-19T13:24:13.684Z,102355.19
2023-02-19T13:27:12.407Z,102350.06
2023-02-19T13:30:05.002Z,102351.47
2023-02-19T13:32:49.425Z,102350.94
2023-02-19T13:35:54.176Z,102347.13
2023-02-19T13:38:21.824Z,102349.47
2023-02-19T13:40:57.295Z,102338.31
2023-02-19T13:43:28.807Z,102348.03
2023-02-19T13:46:22.461Z,102325.69
2023-02-19T13:49:28.065Z,102324.41
2023-02-19T13:52:02.608Z,102319.97
2023-02-19T13:54:33.471Z,102317.66
2023-02-19T13:57:26.666Z,102299.66
2023-02-19T13:59:55.533Z,102301.97
2023-02-19T14:02:23.111Z,102291.75
2023-02-19T14:05:44.588Z,102301.69
2023-02-19T14:08:12.196Z,102280.97
2023-02-19T14:10:53.988Z,102278.03
2023-02-19T14:13:52.432Z,102282.56
2023-02-19T14:16:41.280Z,102279.28
2023-02-19T14:19:36.011Z,102281.69
2023-02-19T14:22:41.934Z,102285.34
2023-02-19T14:25:24.116Z,102288.06
2023-02-19T14:27:52.964Z,102293.00
2023-02-19T14:30:21.855Z,102306.41
2023-02-19T14:32:54.613Z,102310.44
2023-02-19T14:35:32.396Z,102306.56
2023-02-19T14:37:59.777Z,102315.84
2023-02-19T14:40:33.903Z,102314.72
2023-02-19T14:43:01.706Z,102319.75
2023-02-19T14:45:30.028Z,102333.25
2023-02-19T14:47:58.532Z,102329.34
2023-02-19T14:50:31.584Z,102332.72
2023-02-19T14:53:01.767Z,102338.53
2023-02-19T14:55:29.003Z,102339.16
2023-02-19T14:57:58.930Z,102345.09
2023-02-19T15:00:30.224Z,102344.34
2023-02-19T15:02:59.810Z,102332.41
2023-02-19T15:05:29.401Z,102331.81
2023-02-19T15:08:00.285Z,102339.56
2023-02-19T15:10:29.571Z,102348.84
2023-02-19T15:13:00.186Z,102347.38
2023-02-19T15:15:29.831Z,102355.22
2023-02-19T15:17:57.773Z,102358.44
2023-02-19T15:20:38.697Z,102353.88
2023-02-19T15:23:07.570Z,102361.13
2023-02-19T15:25:37.624Z,102357.25
2023-02-19T15:28:23.893Z,102354.63
2023-02-19T15:30:57.550Z,102343.66
2023-02-19T15:33:27.326Z,102340.16
2023-02-19T15:36:08.195Z,102335.16
2023-02-19T15:38:35.747Z,102332.69
2023-02-19T15:41:03.435Z,102332.53
2023-02-19T15:43:39.544Z,102346.47
2023-02-19T15:46:11.858Z,102345.94
2023-02-19T15:48:46.564Z,102345.53
2023-02-19T15:51:18.902Z,102332.56
2023-02-19T15:53:50.342Z,102336.06
2023-02-19T15:56:28.296Z,102318.47
2023-02-19T15:59:07.310Z,102335.16
2023-02-19T16:01:37.270Z,102340.22
2023-02-19T16:04:10.125Z,102330.78
2023-02-19T16:07:23.543Z,102325.34
2023-02-19T16:10:05.959Z,102327.13
2023-02-19T16:12:33.516Z,102339.78
2023-02-19T16:15:12.327Z,102333.16
2023-02-19T16:17:43.575Z,102341.34
2023-02-19T16:20:21.796Z,102334.38
2023-02-19T16:22:50.042Z,102339.56
2023-02-19T16:25:33.100Z,102335.25
2023-02-19T16:28:11.095Z,102340.28
2023-02-19T16:30:39.109Z,102324.34
2023-02-19T16:33:39.924Z,102315.25
2023-02-19T16:36:28.917Z,102307.72
2023-02-19T16:38:59.991Z,102310.19
2023-02-19T16:41:27.521Z,102309.25
2023-02-19T16:43:54.913Z,102305.22
2023-02-19T16:46:22.592Z,102306.81
2023-02-19T16:48:50.358Z,102311.72
2023-02-19T16:51:24.376Z,102309.59
2023-02-19T16:53:52.104Z,102312.41
2023-02-19T16:56:22.994Z,102302.88
2023-02-19T16:58:52.557Z,102311.59
2023-02-19T17:01:19.950Z,102322.03
2023-02-19T17:03:47.754Z,102321.50
2023-02-19T17:06:15.970Z,102324.84
2023-02-19T17:08:46.160Z,102321.50
2023-02-19T17:11:14.813Z,102320.38
2023-02-19T17:13:43.047Z,102316.81
2023-02-19T17:16:19.495Z,102320.00
2023-02-19T17:18:47.045Z,102332.41
2023-02-19T17:21:21.072Z,102342.00
2023-02-19T17:23:49.122Z,102347.16
2023-02-19T17:26:18.544Z,102354.75
2023-02-19T17:28:46.621Z,102357.31
2023-02-19T17:31:17.048Z,102372.00
2023-02-19T17:33:44.976Z,102373.47
2023-02-19T17:36:32.425Z,102380.38
2023-02-19T17:39:00.890Z,102375.13
2023-02-19T17:41:29.271Z,102365.88
2023-02-19T17:43:57.174Z,102379.25
2023-02-19T17:46:26.886Z,102378.72
2023-02-19T17:48:54.568Z,102380.75
2023-02-19T17:51:24.720Z,102374.91
2023-02-19T17:53:52.107Z,102371.81
2023-02-19T17:56:22.086Z,102377.31
2023-02-19T17:58:50.733Z,102391.88
2023-02-19T18:01:18.405Z,102392.16
2023-02-19T18:03:45.836Z,102396.69
2023-02-19T18:06:13.463Z,102404.97
2023-02-19T18:08:47.020Z,102411.28
2023-02-19T18:11:14.479Z,102409.94
2023-02-19T18:13:41.770Z,102415.25
2023-02-19T18:16:10.046Z,102419.03
2023-02-19T18:18:38.134Z,102434.81
2023-02-19T18:21:09.352Z,102427.31
2023-02-19T18:23:37.176Z,102436.66
2023-02-19T18:26:07.921Z,102440.53
2023-02-19T18:28:35.751Z,102440.25
2023-02-19T18:31:06.384Z,102453.88
2023-02-19T18:33:35.487Z,102451.75
2023-02-19T18:36:03.934Z,102451.53
2023-02-19T18:38:31.493Z,102454.63
2023-02-19T18:40:59.068Z,102449.38
2023-02-19T18:43:26.750Z,102454.59
2023-02-19T18:45:54.264Z,102451.03
2023-02-19T18:48:21.611Z,102452.47
2023-02-19T18:50:50.547Z,102450.22
2023-02-19T18:53:18.056Z,102442.13
2023-02-19T18:55:45.681Z,102434.94
2023-02-19T18:58:13.131Z,102432.66
2023-02-19T19:00:40.874Z,102443.16
2023-02-19T19:03:08.359Z,102447.31
2023-02-19T19:05:36.156Z,102453.09
2023-02-19T19:08:07.108Z,102452.09
2023-02-19T19:10:34.558Z,102458.47
2023-02-19T19:13:02.137Z,102453.81
2023-02-19T19:15:29.543Z,102446.63
2023-02-19T19:17:57.168Z,102452.13
2023-02-19T19:20:24.755Z,102448.00
2023-02-19T19:22:53.360Z,102443.28
2023-02-19T19:25:21.803Z,102441.38
2023-02-19T19:27:52.485Z,102437.25
2023-02-19T19:30:20.825Z,102438.94
2023-02-19T19:32:49.677Z,102438.97
2023-02-19T19:35:22.710Z,102445.81
2023-02-19T19:37:50.244Z,102457.16
2023-02-19T19:40:18.517Z,102452.13
2023-02-19T19:42:46.367Z,102449.41
2023-02-19T19:45:14.602Z,102453.56
2023-02-19T19:47:42.785Z,102453.84
2023-02-19T19:50:12.093Z,102450.28
2023-02-19T19:52:39.558Z,102442.78
2023-02-19T19:55:07.965Z,102449.69
2023-02-19T19:57:35.468Z,102448.00
2023-02-19T20:00:04.591Z,102446.88
2023-02-19T20:02:39.865Z,102450.69
2023-02-19T20:05:07.387Z,102449.13
2023-02-19T20:07:34.733Z,102444.69
2023-02-19T20:10:02.988Z,102452.44
2023-02-19T20:12:30.529Z,102451.06
2023-02-19T20:14:57.807Z,102456.56
2023-02-19T20:17:27.468Z,102449.38
2023-02-19T20:19:55.383Z,102455.78
2023-02-19T20:22:22.856Z,102455.19
2023-02-19T20:24:55.785Z,102461.56
2023-02-19T20:27:23.431Z,102463.22
2023-02-19T20:29:51.275Z,102463.53
2023-02-19T20:32:21.835Z,102459.66
2023-02-19T20:34:49.529Z,102466.53
2023-02-19T20:37:17.393Z,102465.72
2023-02-19T20:39:44.899Z,102461.31
2023-02-19T20:42:16.698Z,102455.53
2023-02-19T20:44:44.688Z,102461.31
2023-02-19T20:47:12.331Z,102466.25
2023-02-19T20:49:44.720Z,102459.38
2023-02-19T20:52:14.313Z,102455.25
2023-02-19T20:54:42.820Z,102457.47
2023-02-19T20:57:11.021Z,102452.78
2023-02-19T20:59:38.895Z,102452.22
2023-02-19T21:02:18.574Z,102455.78
2023-02-19T21:04:46.338Z,102457.16
2023-02-19T21:07:13.808Z,102456.59
2023-02-19T21:09:41.113Z,102459.09
2023-02-19T21:12:08.722Z,102453.84
2023-02-19T21:14:36.135Z,102451.63
2023-02-19T21:17:03.748Z,102451.38
2023-02-19T21:19:31.170Z,102455.53
2023-02-19T21:21:58.402Z,102446.94
2023-02-19T21:24:26.320Z,102450.53
2023-02-19T21:26:53.769Z,102445.31
2023-02-19T21:29:22.255Z,102446.59
2023-02-19T21:31:51.888Z,102434.34
2023-02-19T21:34:21.754Z,102428.66
2023-02-19T21:36:49.897Z,102438.72
2023-02-19T21:39:20.032Z,102430.41
2023-02-19T21:41:47.651Z,102434.16
2023-02-19T21:44:15.345Z,102433.38
2023-02-19T21:46:42.971Z,102439.22
2023-02-19T21:49:11.700Z,102432.91
2023-02-19T21:51:41.382Z,102431.53
2023-02-19T21:54:14.321Z,102421.31
2023-02-19T21:56:41.877Z,102414.97
2023-02-19T21:59:09.261Z,102415.25
2023-02-19T22:01:42.203Z,102410.00
2023-02-19T22:04:11.682Z,102408.06
2023-02-19T22:06:41.804Z,102396.50
2023-02-19T22:09:09.354Z,102401.44
2023-02-19T22:11:36.744Z,102400.03
2023-02-19T22:14:04.189Z,102401.72
2023-02-19T22:16:31.648Z,102400.84
2023-02-19T22:18:59.704Z,102399.72
2023-02-19T22:21:32.410Z,102406.28
2023-02-19T22:24:01.199Z,102409.69
2023-02-19T22:26:34.132Z,102414.38
2023-02-19T22:29:07.402Z,102421.28
2023-02-19T22:31:35.882Z,102419.88
2023-02-19T22:34:04.163Z,102425.13
2023-02-19T22:36:37.244Z,102438.34
2023-02-19T22:39:06.908Z,102433.09
2023-02-19T22:41:34.492Z,102434.22
2023-02-19T22:44:02.229Z,102434.53
2023-02-19T22:46:30.535Z,102430.13
2023-02-19T22:49:01.552Z,102428.75
2023-02-19T22:51:30.110Z,102427.09
2023-02-19T22:53:58.613Z,102435.09
2023-02-19T22:56:27.902Z,102434.50
2023-02-19T22:58:56.824Z,102438.63
2023-02-19T23:01:24.890Z,102440.03
2023-02-19T23:03:57.633Z,102447.88
2023-02-19T23:06:26.011Z,102447.56
2023-02-19T23:08:54.434Z,102440.94
2023-02-19T23:11:23.936Z,102447.03
2023-02-19T23:13:51.729Z,102448.16
2023-02-19T23:16:19.282Z,102453.41
2023-02-19T23:18:46.635Z,102451.19
2023-02-19T23:21:14.307Z,102450.53
2023-02-19T23:23:42.714Z,102457.88
2023-02-19T23:26:10.763Z,102449.06
2023-02-19T23:28:40.231Z,102448.88
2023-02-19T23:31:07.779Z,102444.69
2023-02-19T23:33:35.596Z,102454.41
2023-02-19T23:36:03.249Z,102456.41
2023-02-19T23:38:30.510Z,102454.72
2023-02-19T23:40:58.931Z,102455.03
2023-02-19T23:43:26.272Z,102458.03
2023-02-19T23:45:53.804Z,102459.19
2023-02-19T23:48:21.245Z,102466.34
2023-02-19T23:50:49.099Z,102464.72
2023-02-19T23:53:16.621Z,102461.69
2023-02-19T23:55:44.041Z,102461.69
2023-02-19T23:58:11.365Z,102466.19
